Time;durP1;ratioP1;P1;durP2;ratioP2;P2;SDS_P1;SDS_P2;PMS_P1;PMS_P2;Temp;Humidity;BMP_temperature;BMP_pressure;BME280_temperature;BME280_humidity;BME280_pressure;Samples;Min_cycle;Max_cycle;Signal;HPM_P1;HPM_P2
2024/01/26 00:01:19;;;;;;;;;1.00;1.00;;;;;9.13;83.23;100656.44;5074846;28;9644;-59
2024/01/26 00:03:47;;;;;;;;;1.00;1.00;;;;;9.16;83.13;100648.31;5074481;28;9486;-57
2024/01/26 00:06:15;;;;;;;;;3.00;3.00;;;;;9.18;82.96;100650.88;5075183;28;8906;-58
2024/01/26 00:08:43;;;;;;;;;1.00;1.00;;;;;9.21;83.51;100651.53;5074308;28;8871;-59
2024/01/26 00:11:11;;;;;;;;;1.00;0.75;;;;;9.23;83.21;100646.97;5075354;28;8942;-59
2024/01/26 00:13:39;;;;;;;;;0.75;0.75;;;;;9.24;83.02;100651.31;5074078;28;8816;-58
2024/01/26 00:16:07;;;;;;;;;0.50;0.50;;;;;9.28;83.23;100646.69;5075027;28;8964;-57
2024/01/26 00:18:34;;;;;;;;;2.00;2.00;;;;;9.31;83.01;100641.16;5075060;28;9552;-59
2024/01/26 00:21:03;;;;;;;;;1.00;1.00;;;;;9.33;82.99;100633.97;5075084;28;8828;-58
2024/01/26 00:23:31;;;;;;;;;1.00;1.00;;;;;9.36;82.92;100639.06;5076089;28;8824;-58
2024/01/26 00:25:59;;;;;;;;;0.00;0.00;;;;;9.39;82.55;100645.03;5075579;28;8836;-58
2024/01/26 00:28:26;;;;;;;;;0.00;0.00;;;;;9.42;82.84;100638.69;5076200;28;8840;-59
2024/01/26 00:30:54;;;;;;;;;2.25;2.25;;;;;9.45;83.16;100647.31;5076045;28;8848;-58
2024/01/26 00:33:22;;;;;;;;;1.00;0.25;;;;;9.47;83.24;100645.41;5076272;28;8828;-57
2024/01/26 00:35:50;;;;;;;;;0.75;0.75;;;;;9.49;83.13;100637.34;5075096;28;8824;-57
2024/01/26 00:38:18;;;;;;;;;0.50;0.50;;;;;9.49;82.60;100640.00;5075424;28;8836;-57
2024/01/26 00:40:46;;;;;;;;;0.50;0.50;;;;;9.49;83.28;100635.53;5075287;28;8832;-56
2024/01/26 00:43:13;;;;;;;;;1.00;1.00;;;;;9.49;83.40;100629.38;5075594;28;8817;-59
2024/01/26 00:45:41;;;;;;;;;1.00;1.00;;;;;9.48;83.12;100623.19;5075427;28;8835;-59
2024/01/26 00:48:09;;;;;;;;;1.00;1.00;;;;;9.50;83.21;100623.94;5075753;28;8844;-59
2024/01/26 00:50:37;;;;;;;;;0.50;0.50;;;;;9.49;83.42;100616.91;5074565;28;8844;-56
2024/01/26 00:53:04;;;;;;;;;1.00;1.00;;;;;9.50;82.78;100615.13;5075091;28;8983;-59
2024/01/26 00:55:32;;;;;;;;;1.00;1.00;;;;;9.50;83.10;100615.94;5075424;28;8850;-57
2024/01/26 00:58:00;;;;;;;;;0.25;0.25;;;;;9.51;83.53;100616.81;5075402;28;8877;-56
2024/01/26 01:00:29;;;;;;;;;1.00;1.00;;;;;9.51;83.18;100619.47;5075180;28;8904;-59
2024/01/26 01:02:56;;;;;;;;;2.00;1.00;;;;;9.52;83.54;100610.53;5075014;28;9521;-58
2024/01/26 01:05:24;;;;;;;;;3.25;2.50;;;;;9.51;83.56;100604.41;5074645;28;8883;-59
2024/01/26 01:07:52;;;;;;;;;1.00;1.00;;;;;9.52;83.21;100608.75;5074789;28;8897;-57
2024/01/26 01:10:20;;;;;;;;;0.00;0.00;;;;;9.53;83.71;100598.97;5075171;28;8832;-58
2024/01/26 01:12:47;;;;;;;;;1.00;1.00;;;;;9.54;83.10;100601.53;5075558;28;8828;-59
2024/01/26 01:15:17;;;;;;;;;3.25;1.50;;;;;9.56;83.39;100607.59;5075345;28;9536;-59
2024/01/26 01:17:44;;;;;;;;;0.50;0.00;;;;;9.58;83.14;100599.53;5075587;28;8848;-57
2024/01/26 01:20:13;;;;;;;;;0.00;0.00;;;;;9.58;83.34;100595.03;5075449;28;8820;-58
2024/01/26 01:22:41;;;;;;;;;0.00;0.00;;;;;9.58;83.41;100580.91;5075513;28;8909;-59
2024/01/26 01:25:09;;;;;;;;;1.00;1.00;;;;;9.56;83.57;100588.97;5075243;28;8840;-57
2024/01/26 01:27:36;;;;;;;;;1.50;0.50;;;;;9.56;83.37;100577.50;5075345;28;8842;-58
2024/01/26 01:30:04;;;;;;;;;0.00;0.00;;;;;9.55;83.41;100587.28;5074974;28;8835;-59
2024/01/26 01:32:32;;;;;;;;;0.00;0.00;;;;;9.56;83.92;100590.81;5075425;28;8824;-57
2024/01/26 01:35:00;;;;;;;;;0.50;0.50;;;;;9.55;83.45;100589.94;5075452;28;8889;-58
2024/01/26 01:37:27;;;;;;;;;0.00;0.00;;;;;9.56;83.52;100577.50;5075162;28;8832;-59
2024/01/26 01:39:55;;;;;;;;;0.00;0.00;;;;;9.55;83.30;100581.97;5075367;28;8851;-59
2024/01/26 01:42:23;;;;;;;;;0.00;0.00;;;;;9.58;83.85;100591.53;5075403;28;8843;-58
2024/01/26 01:44:51;;;;;;;;;0.00;0.00;;;;;9.58;83.49;100588.88;5075217;28;8862;-57
2024/01/26 01:47:19;;;;;;;;;0.50;0.50;;;;;9.59;84.02;100582.63;5075533;28;9585;-57
2024/01/26 01:49:46;;;;;;;;;0.00;0.00;;;;;9.60;83.96;100573.69;5075585;28;9502;-57
2024/01/26 01:52:14;;;;;;;;;0.00;0.00;;;;;9.60;83.76;100574.53;5075911;28;8835;-58
2024/01/26 01:54:42;;;;;;;;;0.00;0.00;;;;;9.61;84.07;100578.91;5079005;28;8870;-57
2024/01/26 01:57:09;;;;;;;;;0.00;0.00;;;;;9.62;84.00;100572.63;5078732;28;8832;-57
2024/01/26 01:59:37;;;;;;;;;1.00;1.00;;;;;9.63;83.53;100579.66;5078808;28;8836;-57
2024/01/26 02:02:05;;;;;;;;;0.00;0.00;;;;;9.63;83.61;100579.66;5078749;28;8839;-58
2024/01/26 02:04:33;;;;;;;;;0.50;0.50;;;;;9.63;83.83;100576.16;5079062;28;9474;-57
2024/01/26 02:07:01;;;;;;;;;0.25;0.25;;;;;9.63;84.08;100579.66;5078953;28;8959;-58
2024/01/26 02:09:28;;;;;;;;;0.75;0.75;;;;;9.63;83.89;100576.16;5078241;28;8828;-57
2024/01/26 02:11:56;;;;;;;;;0.50;0.50;;;;;9.63;83.80;100584.13;5078588;28;8856;-58
2024/01/26 02:14:25;;;;;;;;;1.00;1.00;;;;;9.63;84.23;100582.31;5077443;28;8844;-57
2024/01/26 02:16:53;;;;;;;;;0.00;0.00;;;;;9.62;83.78;100577.94;5077545;28;8825;-58
2024/01/26 02:19:21;;;;;;;;;1.00;1.00;;;;;9.62;83.97;100580.59;5076624;28;8839;-58
2024/01/26 02:21:52;;;;;;;;;1.00;1.00;;;;;9.64;84.27;100567.22;5077581;28;8820;-57
2024/01/26 02:24:20;;;;;;;;;1.00;1.00;;;;;9.65;83.93;100567.09;5077477;28;8828;-58
2024/01/26 02:26:48;;;;;;;;;0.50;0.50;;;;;9.65;84.20;100556.47;5077753;28;9523;-57
2024/01/26 02:29:15;;;;;;;;;0.00;0.00;;;;;9.66;84.20;100560.00;5076764;28;8934;-57
2024/01/26 02:31:43;;;;;;;;;1.50;1.50;;;;;9.66;83.94;100552.84;5077771;28;8828;-57
2024/01/26 02:34:13;;;;;;;;;1.00;1.00;;;;;9.67;83.93;100543.06;5077370;28;8837;-57
2024/01/26 02:36:41;;;;;;;;;2.00;2.00;;;;;9.69;84.06;100550.00;5077832;28;9604;-58
2024/01/26 02:39:10;;;;;;;;;1.50;1.00;;;;;9.72;83.68;100551.63;5077641;28;8840;-58
2024/01/26 02:41:37;;;;;;;;;3.50;2.50;;;;;9.73;83.93;100548.00;5077763;28;8836;-59
2024/01/26 02:44:05;;;;;;;;;3.25;3.00;;;;;9.74;84.07;100542.59;5076565;28;8839;-58
2024/01/26 02:46:33;;;;;;;;;0.50;0.50;;;;;9.76;84.00;100551.31;5076757;28;8864;-58
2024/01/26 02:49:01;;;;;;;;;3.50;3.50;;;;;9.77;83.90;100562.78;5076751;28;8846;-57
2024/01/26 02:51:29;;;;;;;;;3.50;3.00;;;;;9.79;84.08;100559.06;5077453;28;8835;-58
2024/01/26 02:53:57;;;;;;;;;4.50;3.00;;;;;9.81;84.40;100545.69;5078081;28;8863;-59
2024/01/26 02:56:25;;;;;;;;;4.50;3.75;;;;;9.81;83.64;100549.16;5077832;28;8820;-59
2024/01/26 02:58:52;;;;;;;;;3.75;3.50;;;;;9.84;84.54;100550.78;5077959;28;9521;-57
2024/01/26 03:01:20;;;;;;;;;4.00;4.00;;;;;9.83;84.26;100544.63;5077770;28;8835;-59
2024/01/26 03:03:48;;;;;;;;;4.00;4.00;;;;;9.86;83.81;100544.41;5076699;28;8858;-58
2024/01/26 03:06:16;;;;;;;;;5.50;5.00;;;;;9.87;84.68;100539.94;5077491;28;8901;-59
2024/01/26 03:08:43;;;;;;;;;4.50;4.00;;;;;9.88;83.97;100526.53;5077580;28;8938;-59
2024/01/26 03:11:12;;;;;;;;;4.00;4.00;;;;;9.89;84.22;100528.25;5076902;28;8816;-58
2024/01/26 03:13:39;;;;;;;;;6.00;4.00;;;;;9.91;84.21;100536.13;5076208;28;8832;-60
2024/01/26 03:16:07;;;;;;;;;3.25;3.00;;;;;9.92;84.10;100533.34;5076134;28;8838;-58
2024/01/26 03:18:34;;;;;;;;;5.50;3.75;;;;;9.93;84.19;100531.56;5076105;28;8820;-59
2024/01/26 03:21:02;;;;;;;;;6.25;6.25;;;;;9.93;83.96;100524.41;5077291;28;8831;-59
2024/01/26 03:23:30;;;;;;;;;6.50;6.50;;;;;9.95;84.45;100524.31;5077143;28;8835;-59
2024/01/26 03:25:58;;;;;;;;;8.75;6.00;;;;;9.97;84.18;100530.38;5076740;28;8843;-59
2024/01/26 03:28:26;;;;;;;;;4.00;4.00;;;;;9.98;84.17;100524.09;5077211;28;8843;-59
2024/01/26 03:30:53;;;;;;;;;5.25;5.25;;;;;9.99;84.47;100524.00;5076675;28;8828;-59
2024/01/26 03:33:21;;;;;;;;;8.50;6.75;;;;;10.01;84.35;100526.56;5077080;28;8824;-59
2024/01/26 03:35:49;;;;;;;;;6.50;6.50;;;;;10.00;84.43;100517.72;5076983;28;8840;-59
2024/01/26 03:38:17;;;;;;;;;7.00;4.00;;;;;10.01;84.49;100511.44;5076927;28;8837;-59
2024/01/26 03:40:44;;;;;;;;;6.50;6.50;;;;;10.02;84.21;100512.31;5075601;28;8838;-59
2024/01/26 03:43:12;;;;;;;;;4.00;3.75;;;;;10.03;84.45;100508.72;5076447;28;8820;-59
2024/01/26 03:45:40;;;;;;;;;7.00;6.00;;;;;10.03;84.34;100508.72;5076101;28;8854;-60
2024/01/26 03:48:07;;;;;;;;;3.25;3.25;;;;;10.05;84.55;100496.16;5076435;28;8906;-59
2024/01/26 03:50:35;;;;;;;;;8.00;8.00;;;;;10.05;84.32;100505.00;5076343;28;8820;-59
2024/01/26 03:53:03;;;;;;;;;5.50;4.00;;;;;10.06;84.18;100504.03;5076826;28;9512;-59
2024/01/26 03:55:31;;;;;;;;;4.50;3.50;;;;;10.08;84.54;100506.63;5076442;28;8824;-59
2024/01/26 03:57:59;;;;;;;;;7.50;4.50;;;;;10.09;84.19;100513.63;5076911;28;8820;-57
2024/01/26 04:00:27;;;;;;;;;6.00;6.00;;;;;10.12;84.49;100519.59;5076392;28;8856;-57
2024/01/26 04:02:54;;;;;;;;;3.00;3.00;;;;;10.14;84.23;100509.69;5076024;28;8834;-58
2024/01/26 04:05:22;;;;;;;;;4.00;3.50;;;;;10.16;84.08;100509.59;5075503;28;8820;-57
2024/01/26 04:07:50;;;;;;;;;8.50;7.00;;;;;10.18;84.07;100503.19;5076141;28;8859;-59
2024/01/26 04:10:18;;;;;;;;;5.00;5.00;;;;;10.22;84.49;100498.50;5076081;28;8971;-59
2024/01/26 04:12:45;;;;;;;;;6.67;5.33;;;;;10.22;84.15;100488.72;5076085;28;8980;-58
2024/01/26 04:15:13;;;;;;;;;3.00;3.00;;;;;10.23;84.42;100487.75;5076062;28;8823;-58
2024/01/26 04:17:41;;;;;;;;;6.00;4.50;;;;;10.25;83.80;100480.50;5075682;28;8825;-58
2024/01/26 04:20:09;;;;;;;;;8.00;6.50;;;;;10.27;83.99;100477.75;5075286;28;8840;-57
2024/01/26 04:22:36;;;;;;;;;9.75;9.50;;;;;10.27;84.26;100496.38;5075802;28;8836;-57
2024/01/26 04:25:04;;;;;;;;;4.00;3.50;;;;;10.29;84.54;100499.78;5075025;28;9516;-57
2024/01/26 04:27:32;;;;;;;;;5.00;4.00;;;;;10.31;84.04;100490.72;5075957;28;8828;-57
2024/01/26 04:29:59;;;;;;;;;3.50;3.50;;;;;10.32;84.08;100473.81;5074944;28;8950;-58
2024/01/26 04:32:27;;;;;;;;;5.50;4.50;;;;;10.35;84.43;100467.41;5075137;28;8848;-59
2024/01/26 04:34:55;;;;;;;;;4.50;3.75;;;;;10.36;84.63;100469.97;5074784;28;8844;-57
2024/01/26 04:37:23;;;;;;;;;5.50;4.50;;;;;10.38;84.28;100456.53;5075037;28;8820;-59
2024/01/26 04:39:51;;;;;;;;;6.25;5.25;;;;;10.38;84.10;100446.75;5075565;28;8824;-58
2024/01/26 04:42:19;;;;;;;;;4.50;4.00;;;;;10.37;84.70;100439.72;5075655;28;9533;-59
2024/01/26 04:44:50;;;;;;;;;6.00;4.00;;;;;10.39;84.26;100440.47;5075243;28;8836;-57
2024/01/26 04:47:18;;;;;;;;;4.50;4.50;;;;;10.40;84.26;100447.50;5075310;28;8845;-59
2024/01/26 04:49:46;;;;;;;;;5.00;4.00;;;;;10.41;84.49;100435.88;5075608;28;8974;-58
2024/01/26 04:52:14;;;;;;;;;2.50;2.50;;;;;10.41;84.43;100429.72;5075617;28;8916;-56
2024/01/26 04:54:41;;;;;;;;;3.50;3.00;;;;;10.41;84.18;100411.91;5075976;28;8828;-59
2024/01/26 04:57:09;;;;;;;;;2.00;1.00;;;;;10.44;84.60;100416.19;5075904;28;9549;-58
2024/01/26 04:59:49;;;;;;;;;2.50;2.50;;;;;10.46;84.61;100422.28;5075890;28;8824;-57
2024/01/26 05:02:17;;;;;;;;;7.25;6.00;;;;;10.46;84.64;100411.63;5075684;28;8824;-57
2024/01/26 05:04:45;;;;;;;;;3.25;3.00;;;;;10.46;84.18;100406.28;5075558;28;8850;-58
2024/01/26 05:07:12;;;;;;;;;5.50;5.00;;;;;10.46;84.29;100396.47;5075079;28;8846;-59
2024/01/26 05:09:40;;;;;;;;;3.50;3.00;;;;;10.48;84.18;100386.56;5075114;28;8836;-58
2024/01/26 05:12:11;;;;;;;;;1.00;1.00;;;;;10.47;84.87;100387.53;5075381;28;8905;-57
2024/01/26 05:14:38;;;;;;;;;4.00;3.00;;;;;10.47;84.51;100382.19;5075209;28;9563;-58
2024/01/26 05:17:06;;;;;;;;;3.00;3.00;;;;;10.46;84.17;100377.84;5073658;28;8844;-60
2024/01/26 05:19:34;;;;;;;;;6.25;5.00;;;;;10.46;84.41;100369.84;5074597;28;8834;-58
2024/01/26 05:22:02;;;;;;;;;7.00;4.00;;;;;10.45;85.06;100362.84;5074639;28;8843;-57
2024/01/26 05:24:30;;;;;;;;;4.00;3.50;;;;;10.45;84.51;100367.28;5075164;28;8850;-59
2024/01/26 05:26:57;;;;;;;;;7.00;6.00;;;;;10.44;84.25;100365.59;5075213;28;8839;-59
2024/01/26 05:29:25;;;;;;;;;6.25;5.50;;;;;10.44;84.50;100358.47;5078906;28;8827;-57
2024/01/26 05:31:54;;;;;;;;;7.00;6.75;;;;;10.46;84.29;100366.34;5079056;28;8843;-59
2024/01/26 05:34:21;;;;;;;;;6.25;5.00;;;;;10.47;84.42;100354.75;5079214;28;8878;-58
2024/01/26 05:36:49;;;;;;;;;10.00;9.50;;;;;10.47;84.39;100360.91;5078938;28;8885;-58
2024/01/26 05:39:17;;;;;;;;;6.75;5.50;;;;;10.50;84.42;100362.50;5079051;28;8838;-59
2024/01/26 05:41:45;;;;;;;;;5.00;4.75;;;;;10.54;84.51;100364.81;5079037;28;8831;-59
2024/01/26 05:44:13;;;;;;;;;7.50;6.00;;;;;10.56;84.83;100368.22;5078461;28;8824;-59
2024/01/26 05:46:41;;;;;;;;;6.75;6.00;;;;;10.57;84.70;100361.94;5077924;28;8970;-59
2024/01/26 05:49:09;;;;;;;;;6.00;4.00;;;;;10.60;84.07;100371.50;5078477;28;8812;-58
2024/01/26 05:51:37;;;;;;;;;3.50;3.25;;;;;10.61;84.74;100376.72;5077545;28;8828;-57
2024/01/26 05:54:05;;;;;;;;;3.50;3.50;;;;;10.63;84.35;100364.13;5078432;28;8866;-59
2024/01/26 05:56:33;;;;;;;;;2.50;2.50;;;;;10.64;84.12;100347.22;5077593;28;8828;-59
2024/01/26 05:59:00;;;;;;;;;4.75;3.00;;;;;10.67;84.10;100352.31;5077713;28;8855;-59
2024/01/26 06:01:28;;;;;;;;;3.50;3.50;;;;;10.68;84.31;100359.34;5077848;28;8858;-58
2024/01/26 06:03:56;;;;;;;;;4.00;4.00;;;;;10.70;84.04;100370.72;5077841;28;9531;-58
2024/01/26 06:06:23;;;;;;;;;3.50;3.50;;;;;10.71;84.14;100345.78;5076830;28;9630;-59
2024/01/26 06:08:51;;;;;;;;;5.00;4.00;;;;;10.74;84.20;100353.56;5077306;28;8852;-58
2024/01/26 06:11:19;;;;;;;;;1.00;1.00;;;;;10.76;83.97;100348.97;5077522;28;8844;-57
2024/01/26 06:13:47;;;;;;;;;3.25;3.25;;;;;10.78;84.61;100357.69;5077771;28;8983;-58
2024/01/26 06:16:18;;;;;;;;;5.00;3.00;;;;;10.80;84.69;100358.44;5077357;28;8848;-59
2024/01/26 06:18:46;;;;;;;;;3.00;3.00;;;;;10.82;84.55;100337.88;5077564;28;8820;-59
2024/01/26 06:21:14;;;;;;;;;5.50;5.50;;;;;10.85;84.09;100329.63;5077469;28;8808;-58
2024/01/26 06:23:42;;;;;;;;;5.50;4.50;;;;;10.86;84.49;100331.31;5077472;28;8839;-58
2024/01/26 06:26:10;;;;;;;;;3.75;3.75;;;;;10.86;84.28;100323.34;5076408;28;8856;-59
2024/01/26 06:28:38;;;;;;;;;5.50;4.50;;;;;10.83;83.98;100328.91;5076580;28;9506;-57
2024/01/26 06:31:06;;;;;;;;;5.00;5.00;;;;;10.82;84.26;100305.91;5076306;28;8975;-60
2024/01/26 06:33:33;;;;;;;;;3.00;2.50;;;;;10.81;84.51;100296.22;5075508;28;8820;-60
2024/01/26 06:36:01;;;;;;;;;4.00;4.00;;;;;10.80;84.29;100281.19;5075764;28;8836;-58
2024/01/26 06:38:29;;;;;;;;;4.00;3.50;;;;;10.80;84.41;100283.84;5075253;28;8852;-58
2024/01/26 06:40:59;;;;;;;;;8.00;6.50;;;;;10.79;84.29;100274.19;5074811;28;8836;-57
2024/01/26 06:43:28;;;;;;;;;3.00;3.00;;;;;10.79;84.41;100268.84;5076228;28;8839;-58
2024/01/26 06:45:55;;;;;;;;;7.00;6.75;;;;;10.79;84.73;100274.19;5077030;28;8943;-59
2024/01/26 06:48:25;;;;;;;;;4.25;3.00;;;;;10.82;84.14;100276.59;5076653;28;8832;-58
2024/01/26 06:50:53;;;;;;;;;3.75;3.00;;;;;10.86;84.44;100254.06;5076605;28;8908;-59
2024/01/26 06:53:21;;;;;;;;;3.00;1.50;;;;;10.88;84.67;100244.16;5076548;28;8832;-57
2024/01/26 06:55:48;;;;;;;;;2.50;1.00;;;;;10.89;83.86;100245.00;5076610;28;8836;-57
2024/01/26 06:58:19;;;;;;;;;1.50;1.00;;;;;10.87;83.97;100244.28;5076415;28;8897;-59
2024/01/26 07:00:47;;;;;;;;;1.00;1.00;;;;;10.84;84.10;100232.03;5076504;28;9489;-59
2024/01/26 07:03:15;;;;;;;;;1.00;1.00;;;;;10.85;84.42;100238.22;5075882;28;8847;-59
2024/01/26 07:05:42;;;;;;;;;1.00;1.00;;;;;10.87;84.22;100237.16;5075764;28;8843;-59
2024/01/26 07:08:10;;;;;;;;;0.00;0.00;;;;;10.91;84.37;100238.59;5074978;28;9019;-59
2024/01/26 07:10:38;;;;;;;;;3.50;3.00;;;;;10.93;83.77;100223.34;5074443;28;8835;-59
2024/01/26 07:13:06;;;;;;;;;1.00;1.00;;;;;10.95;84.17;100237.41;5075167;28;8820;-59
2024/01/26 07:15:35;;;;;;;;;1.50;1.50;;;;;10.98;83.65;100220.31;5073944;28;8844;-59
2024/01/26 07:18:04;;;;;;;;;0.00;0.00;;;;;10.99;83.62;100236.19;5074564;28;8848;-59
2024/01/26 07:20:31;;;;;;;;;1.00;1.00;;;;;11.01;83.85;100220.94;5074917;28;8836;-59
2024/01/26 07:23:05;;;;;;;;;0.50;0.50;;;;;10.91;83.78;100243.94;5074413;28;8828;-57
2024/01/26 07:25:33;;;;;;;;;0.00;0.00;;;;;10.80;84.36;100217.25;5074500;28;8856;-59
2024/01/26 07:28:00;;;;;;;;;1.00;0.75;;;;;10.70;84.36;100216.25;5074130;28;8852;-58
2024/01/26 07:30:28;;;;;;;;;1.00;1.00;;;;;10.64;84.40;100199.88;5073863;28;9673;-60
2024/01/26 07:32:56;;;;;;;;;0.00;0.00;;;;;10.57;84.77;100204.84;5073921;28;8820;-59
2024/01/26 07:35:24;;;;;;;;;1.00;1.00;;;;;10.50;85.40;100184.97;5074057;28;8832;-59
2024/01/26 07:37:52;;;;;;;;;1.00;1.00;;;;;10.46;85.21;100186.16;5074861;28;8848;-58
2024/01/26 07:40:20;;;;;;;;;0.50;0.50;;;;;10.43;85.41;100183.72;5075191;28;8846;-59
2024/01/26 07:42:48;;;;;;;;;1.00;1.00;;;;;10.41;85.19;100164.34;5075107;28;8950;-59
2024/01/26 07:45:16;;;;;;;;;0.00;0.00;;;;;10.40;85.23;100177.78;5075654;28;8912;-59
2024/01/26 07:47:43;;;;;;;;;0.75;0.00;;;;;10.41;84.86;100180.31;5074559;28;8874;-58
2024/01/26 07:50:11;;;;;;;;;1.00;1.00;;;;;10.41;85.58;100184.81;5073913;28;8863;-59
2024/01/26 07:52:40;;;;;;;;;0.00;0.00;;;;;10.41;85.46;100196.28;5075167;28;8858;-58
2024/01/26 07:55:09;;;;;;;;;0.00;0.00;;;;;10.43;85.60;100167.75;5075222;28;8816;-59
2024/01/26 07:57:37;;;;;;;;;0.00;0.00;;;;;10.47;85.74;100185.19;5075020;28;8816;-60
2024/01/26 08:00:05;;;;;;;;;0.00;0.00;;;;;10.52;85.48;100176.84;5074614;28;8840;-59
2024/01/26 08:02:33;;;;;;;;;0.00;0.00;;;;;10.56;84.84;100184.47;5074456;28;8824;-57
2024/01/26 08:05:01;;;;;;;;;0.00;0.00;;;;;10.58;85.03;100193.22;5074343;28;8867;-59
2024/01/26 08:07:29;;;;;;;;;2.50;2.50;;;;;10.52;85.18;100201.66;5074147;28;8827;-57
2024/01/26 08:09:57;;;;;;;;;0.25;0.00;;;;;10.48;85.27;100194.84;5075469;28;8888;-56
2024/01/26 08:12:25;;;;;;;;;0.50;0.50;;;;;10.46;85.30;100199.47;5075421;28;8824;-57
2024/01/26 08:15:11;;;;;;;;;0.75;0.75;;;;;10.44;86.07;100205.84;5075079;28;8836;-59
2024/01/26 08:17:39;;;;;;;;;1.00;1.00;;;;;10.42;85.62;100216.66;5074732;28;9525;-56
2024/01/26 08:20:07;;;;;;;;;0.00;0.00;;;;;10.38;85.54;100209.84;5073680;28;8831;-59
2024/01/26 08:22:39;;;;;;;;;0.50;0.00;;;;;10.36;85.77;100219.75;5073866;28;8820;-58
2024/01/26 08:25:08;;;;;;;;;0.25;0.25;;;;;10.34;85.99;100208.38;5074458;28;9615;-57
2024/01/26 08:27:36;;;;;;;;;1.50;1.00;;;;;10.32;85.92;100204.97;5073897;28;8824;-59
2024/01/26 08:30:04;;;;;;;;;1.00;1.00;;;;;10.30;85.78;100206.91;5074738;28;8840;-56
2024/01/26 08:32:32;;;;;;;;;1.00;1.00;;;;;10.29;86.34;100197.22;5074460;28;8842;-57
2024/01/26 08:35:00;;;;;;;;;1.00;1.00;;;;;10.28;86.74;100198.19;5074560;28;8890;-58
2024/01/26 08:37:28;;;;;;;;;1.50;1.50;;;;;10.25;85.77;100193.06;5075064;28;8897;-56
2024/01/26 08:39:57;;;;;;;;;3.00;1.00;;;;;10.24;86.13;100186.06;5073746;28;8859;-56
2024/01/26 08:42:25;;;;;;;;;0.00;0.00;;;;;10.24;86.26;100191.38;5074365;28;8912;-58
2024/01/26 08:44:53;;;;;;;;;1.00;1.00;;;;;10.22;86.39;100185.31;5074452;28;8820;-59
2024/01/26 08:47:21;;;;;;;;;0.00;0.00;;;;;10.19;86.75;100182.91;5073884;28;8840;-57
2024/01/26 08:49:49;;;;;;;;;0.00;0.00;;;;;10.18;86.16;100186.50;5073102;28;8840;-59
2024/01/26 08:52:17;;;;;;;;;0.00;0.00;;;;;10.17;86.38;100184.81;5072748;28;8836;-57
2024/01/26 08:54:44;;;;;;;;;0.00;0.00;;;;;10.18;86.30;100191.81;5072691;28;9522;-57
2024/01/26 08:57:12;;;;;;;;;0.00;0.00;;;;;10.21;86.60;100174.78;5072079;28;8832;-58
2024/01/26 08:59:40;;;;;;;;;0.00;0.00;;;;;10.20;87.19;100160.66;5073265;28;8824;-58
2024/01/26 09:02:08;;;;;;;;;0.25;0.25;;;;;10.20;86.73;100151.81;5074131;28;8824;-56
2024/01/26 09:04:37;;;;;;;;;0.00;0.00;;;;;10.23;86.99;100171.06;5076911;28;8905;-58
2024/01/26 09:07:04;;;;;;;;;0.00;0.00;;;;;10.22;87.19;100184.47;5076799;28;8832;-58
2024/01/26 09:09:37;;;;;;;;;0.00;0.00;;;;;10.24;87.08;100196.69;5075988;28;8962;-57
2024/01/26 09:12:05;;;;;;;;;0.00;0.00;;;;;10.25;86.72;100189.56;5075882;28;8986;-57
2024/01/26 09:14:33;;;;;;;;;0.00;0.00;;;;;10.29;86.75;100193.69;5075961;28;8850;-56
2024/01/26 09:17:01;;;;;;;;;0.00;0.00;;;;;10.31;87.04;100194.44;5077224;28;8836;-58
2024/01/26 09:19:29;;;;;;;;;0.00;0.00;;;;;10.33;87.09;100185.34;5078012;28;9704;-57
2024/01/26 09:21:57;;;;;;;;;0.00;0.00;;;;;10.36;86.77;100198.47;5078116;28;8832;-58
2024/01/26 09:24:25;;;;;;;;;0.00;0.00;;;;;10.39;86.64;100203.53;5077782;28;8847;-56
2024/01/26 09:26:55;;;;;;;;;0.00;0.00;;;;;10.43;86.61;100210.34;5078467;28;8828;-57
2024/01/26 09:29:26;;;;;;;;;0.00;0.00;;;;;10.46;87.05;100202.13;5078263;28;8870;-58
2024/01/26 09:31:56;;;;;;;;;0.00;0.00;;;;;10.50;87.32;100226.69;5076029;28;8852;-58
2024/01/26 09:34:24;;;;;;;;;1.00;1.00;;;;;10.54;87.04;100215.69;5077115;28;8828;-56
2024/01/26 09:36:52;;;;;;;;;0.75;0.50;;;;;10.59;86.49;100199.38;5077115;28;9559;-58
2024/01/26 09:39:24;;;;;;;;;3.00;1.00;;;;;10.63;86.91;100215.00;5076173;28;8848;-58
2024/01/26 09:41:52;;;;;;;;;2.50;1.50;;;;;10.65;86.74;100198.91;5075826;28;8852;-58
2024/01/26 09:44:20;;;;;;;;;3.25;3.00;;;;;10.69;86.72;100198.56;5075319;28;8820;-58
2024/01/26 09:46:48;;;;;;;;;2.50;1.00;;;;;10.74;86.76;100200.88;5075091;28;9497;-57
2024/01/26 09:49:15;;;;;;;;;3.50;3.00;;;;;10.79;86.91;100201.38;5075354;28;8857;-57
2024/01/26 09:51:43;;;;;;;;;6.00;3.00;;;;;10.83;87.08;100187.72;5075809;28;8963;-56
2024/01/26 09:54:11;;;;;;;;;3.00;3.00;;;;;10.88;86.52;100195.34;5075957;28;8823;-58
2024/01/26 09:56:39;;;;;;;;;6.50;3.00;;;;;10.91;87.12;100187.16;5076504;28;8844;-58
2024/01/26 09:59:07;;;;;;;;;3.00;3.00;;;;;10.95;86.70;100207.25;5077094;28;8962;-57
2024/01/26 10:01:35;;;;;;;;;2.00;2.00;;;;;10.99;86.83;100190.91;5077071;28;8850;-55
2024/01/26 10:04:03;;;;;;;;;2.50;2.50;;;;;11.03;86.58;100180.84;5077211;28;9537;-58
2024/01/26 10:06:32;;;;;;;;;0.00;0.00;;;;;11.06;86.58;100185.97;5076408;28;8848;-58
2024/01/26 10:09:01;;;;;;;;;2.00;2.00;;;;;11.07;86.76;100185.81;5077004;28;8832;-58
2024/01/26 10:11:29;;;;;;;;;1.00;1.00;;;;;11.10;86.29;100182.94;5077173;28;9506;-58
2024/01/26 10:13:56;;;;;;;;;1.00;1.00;;;;;11.14;86.29;100173.72;5075742;28;8828;-58
2024/01/26 10:16:24;;;;;;;;;2.00;1.50;;;;;11.15;86.55;100183.41;5076767;28;8860;-57
2024/01/26 10:18:52;;;;;;;;;1.00;1.00;;;;;11.18;86.92;100171.66;5077568;28;8836;-58
2024/01/26 10:21:22;;;;;;;;;1.00;1.00;;;;;11.18;86.72;100172.53;5077090;28;8846;-59
2024/01/26 10:23:53;;;;;;;;;0.00;0.00;;;;;11.20;86.33;100167.91;5076493;28;8839;-57
2024/01/26 10:26:21;;;;;;;;;0.00;0.00;;;;;11.23;86.84;100165.00;5075367;28;8832;-57
2024/01/26 10:28:50;;;;;;;;;1.00;1.00;;;;;11.25;87.05;100171.06;5076067;28;8844;-58
2024/01/26 10:31:20;;;;;;;;;2.50;1.00;;;;;11.27;86.57;100162.94;5075730;28;8828;-58
2024/01/26 10:33:48;;;;;;;;;0.50;0.50;;;;;11.30;86.70;100163.53;5075881;28;8855;-58
2024/01/26 10:36:16;;;;;;;;;0.25;0.25;;;;;11.34;86.27;100172.16;5075455;28;8824;-57
2024/01/26 10:38:44;;;;;;;;;0.50;0.50;;;;;11.40;86.72;100166.31;5075550;28;8840;-57
2024/01/26 10:41:14;;;;;;;;;0.25;0.25;;;;;11.41;86.57;100155.56;5075294;28;8839;-58
2024/01/26 10:43:42;;;;;;;;;1.00;1.00;;;;;11.41;86.88;100152.03;5075774;28;8820;-58
2024/01/26 10:46:10;;;;;;;;;0.25;0.25;;;;;11.38;86.79;100153.09;5074950;28;8836;-58
2024/01/26 10:48:38;;;;;;;;;0.00;0.00;;;;;11.38;87.30;100147.78;5075195;28;8863;-57
2024/01/26 10:51:07;;;;;;;;;0.25;0.25;;;;;11.39;86.76;100148.63;5074504;28;8962;-58
2024/01/26 10:53:35;;;;;;;;;0.00;0.00;;;;;11.37;86.81;100140.75;5074119;28;8832;-57
2024/01/26 10:56:04;;;;;;;;;0.50;0.50;;;;;11.36;86.94;100139.06;5074830;28;9644;-56
2024/01/26 10:58:32;;;;;;;;;0.00;0.00;;;;;11.37;87.07;100150.59;5076231;28;8844;-58
2024/01/26 11:01:00;;;;;;;;;0.50;0.50;;;;;11.36;87.37;100149.72;5076020;28;8893;-58
2024/01/26 11:03:28;;;;;;;;;0.25;0.25;;;;;11.37;86.95;100150.59;5076278;28;8844;-55
2024/01/26 11:05:56;;;;;;;;;1.00;1.00;;;;;11.37;86.82;100151.41;5076030;28;8832;-56
2024/01/26 11:08:25;;;;;;;;;0.50;0.00;;;;;11.37;87.06;100150.59;5075796;28;8832;-58
2024/01/26 11:10:53;;;;;;;;;0.00;0.00;;;;;11.36;87.29;100160.38;5075332;28;8852;-57
2024/01/26 11:13:21;;;;;;;;;0.00;0.00;;;;;11.37;87.21;100156.75;5075585;28;8958;-58
2024/01/26 11:15:49;;;;;;;;;0.00;0.00;;;;;11.38;87.29;100174.44;5076355;28;8832;-57
2024/01/26 11:18:17;;;;;;;;;0.50;0.50;;;;;11.39;87.16;100191.31;5076262;28;8828;-58
2024/01/26 11:20:46;;;;;;;;;1.00;1.00;;;;;11.36;87.25;100181.72;5076065;28;8847;-57
2024/01/26 11:23:15;;;;;;;;;0.75;0.75;;;;;11.32;87.32;100190.09;5075156;28;8840;-58
2024/01/26 11:25:43;;;;;;;;;0.50;0.50;;;;;11.24;87.56;100212.00;5074300;28;9545;-58
2024/01/26 11:28:11;;;;;;;;;3.00;0.50;;;;;11.12;87.96;100236.09;5074900;28;8835;-57
2024/01/26 11:30:39;;;;;;;;;4.00;3.00;;;;;11.02;87.97;100243.09;5074657;28;8860;-56
2024/01/26 11:33:07;;;;;;;;;1.00;1.00;;;;;10.91;88.59;100262.56;5074185;28;8828;-58
2024/01/26 11:35:35;;;;;;;;;1.00;1.00;;;;;10.78;88.65;100284.94;5075472;28;8820;-57
2024/01/26 11:38:03;;;;;;;;;0.25;0.25;;;;;10.64;88.33;100290.44;5074593;28;8816;-55
2024/01/26 11:40:31;;;;;;;;;0.75;0.75;;;;;10.55;88.75;100285.81;5073123;28;8866;-56